createdAt,value
2023-02-05T00:00:05.051Z,11.80
2023-02-05T00:02:34.099Z,11.80
2023-02-05T00:05:02.813Z,11.43
2023-02-05T00:07:32.909Z,13.40
2023-02-05T00:10:01.579Z,12.47
2023-02-05T00:12:30.159Z,13.20
2023-02-05T00:14:58.769Z,11.53
2023-02-05T00:17:27.350Z,12.47
2023-02-05T00:19:56.628Z,9.97
2023-02-05T00:22:25.245Z,12.40
2023-02-05T00:24:55.269Z,10.27
2023-02-05T00:27:23.816Z,13.93
2023-02-05T00:29:52.448Z,11.23
2023-02-05T00:32:21.076Z,13.13
2023-02-05T00:34:49.766Z,12.37
2023-02-05T00:37:18.357Z,11.73
2023-02-05T00:39:46.934Z,12.27
2023-02-05T00:42:17.169Z,13.27
2023-02-05T00:44:45.731Z,9.10
2023-02-05T00:47:14.633Z,11.83
2023-02-05T00:49:43.252Z,9.63
2023-02-05T00:52:11.977Z,10.63
2023-02-05T00:54:40.767Z,13.23
2023-02-05T00:57:09.945Z,10.73
2023-02-05T00:59:39.924Z,11.50
2023-02-05T01:02:08.600Z,11.27
2023-02-05T01:04:37.273Z,12.90
2023-02-05T01:07:05.844Z,12.57
2023-02-05T01:09:34.513Z,12.93
2023-02-05T01:12:03.083Z,12.20
2023-02-05T01:14:31.668Z,11.53
2023-02-05T01:17:01.713Z,13.70
2023-02-05T01:19:30.232Z,15.43
2023-02-05T01:21:58.871Z,14.83
2023-02-05T01:24:27.557Z,17.37
2023-02-05T01:26:58.742Z,15.50
2023-02-05T01:29:29.317Z,17.50
2023-02-05T01:31:58.467Z,17.13
2023-02-05T01:34:28.464Z,19.13
2023-02-05T01:36:57.031Z,20.00
2023-02-05T01:39:25.686Z,21.07
2023-02-05T01:41:54.218Z,19.40
2023-02-05T01:44:25.573Z,21.33
2023-02-05T01:46:56.074Z,18.27
2023-02-05T01:49:27.711Z,20.70
2023-02-05T01:52:03.265Z,17.00
2023-02-05T01:54:36.208Z,19.13
2023-02-05T01:57:09.057Z,19.17
2023-02-05T01:59:41.647Z,20.23
2023-02-05T02:02:10.494Z,18.90
2023-02-05T02:04:42.099Z,16.97
2023-02-05T02:07:14.757Z,19.13
2023-02-05T02:09:45.424Z,18.03
2023-02-05T02:12:16.806Z,18.53
2023-02-05T02:14:48.610Z,18.17
2023-02-05T02:17:18.718Z,18.60
2023-02-05T02:19:56.496Z,19.70
2023-02-05T02:22:59.032Z,20.37
2023-02-05T02:25:56.646Z,21.20
2023-02-05T02:28:30.510Z,19.23
2023-02-05T02:31:05.261Z,20.03
2023-02-05T02:33:38.425Z,22.23
2023-02-05T02:36:13.549Z,19.23
2023-02-05T02:38:46.393Z,18.13
2023-02-05T02:41:19.569Z,20.37
2023-02-05T02:43:53.625Z,20.07
2023-02-05T02:46:26.619Z,19.63
2023-02-05T02:48:58.365Z,21.03
2023-02-05T02:51:29.788Z,23.30
2023-02-05T02:54:01.666Z,20.30
2023-02-05T02:56:33.320Z,22.23
2023-02-05T02:59:07.372Z,20.37
2023-02-05T03:01:39.850Z,22.00
2023-02-05T03:04:11.630Z,21.93
2023-02-05T03:06:43.430Z,19.47
2023-02-05T03:09:18.082Z,20.57
2023-02-05T03:11:46.835Z,18.37
2023-02-05T03:14:16.813Z,19.93
2023-02-05T03:16:45.480Z,19.97
2023-02-05T03:19:14.410Z,19.00
2023-02-05T03:21:47.524Z,21.17
2023-02-05T03:24:16.209Z,22.03
2023-02-05T03:26:44.772Z,21.63
2023-02-05T03:29:19.321Z,18.60
2023-02-05T03:32:00.008Z,18.73
2023-02-05T03:34:42.619Z,21.90
2023-02-05T03:37:17.976Z,21.40
2023-02-05T03:39:58.438Z,19.77
2023-02-05T03:42:37.570Z,24.33
2023-02-05T03:45:24.593Z,20.60
2023-02-05T03:48:12.882Z,21.00
2023-02-05T03:50:51.034Z,20.20
2023-02-05T03:53:25.575Z,22.17
2023-02-05T03:56:00.941Z,18.70
2023-02-05T03:58:34.983Z,19.70
2023-02-05T04:01:05.624Z,18.33
2023-02-05T04:03:34.341Z,21.07
2023-02-05T04:06:02.978Z,17.23
2023-02-05T04:08:31.770Z,20.20
2023-02-05T04:11:00.427Z,19.17
2023-02-05T04:13:29.045Z,19.17
2023-02-05T04:15:57.568Z,19.23
2023-02-05T04:18:27.596Z,19.87
2023-02-05T04:20:56.151Z,22.33
2023-02-05T04:23:24.743Z,18.30
2023-02-05T04:25:54.777Z,17.60
2023-02-05T04:28:23.471Z,19.10
2023-02-05T04:30:52.096Z,18.80
2023-02-05T04:33:20.830Z,17.07
2023-02-05T04:35:50.837Z,17.70
2023-02-05T04:38:19.527Z,16.77
2023-02-05T04:40:48.232Z,16.93
2023-02-05T04:43:16.798Z,18.77
2023-02-05T04:45:45.597Z,15.57
2023-02-05T04:48:14.287Z,15.50
2023-02-05T04:50:42.901Z,15.83
2023-02-05T04:53:12.824Z,14.67
2023-02-05T04:55:41.613Z,15.80
2023-02-05T04:58:10.224Z,15.97
2023-02-05T05:00:38.976Z,16.20
2023-02-05T05:03:07.679Z,16.73
2023-02-05T05:05:36.736Z,15.83
2023-02-05T05:08:05.500Z,15.80
2023-02-05T05:10:35.566Z,14.27
2023-02-05T05:13:04.129Z,13.93
2023-02-05T05:15:33.160Z,15.10
2023-02-05T05:18:01.968Z,12.67
2023-02-05T05:20:30.872Z,16.80
2023-02-05T05:22:59.459Z,13.07
2023-02-05T05:25:28.180Z,16.03
2023-02-05T05:27:58.313Z,14.20
2023-02-05T05:30:26.916Z,17.03
2023-02-05T05:32:55.529Z,11.67
2023-02-05T05:35:24.072Z,16.23
2023-02-05T05:37:52.667Z,14.03
2023-02-05T05:40:38.755Z,12.80
2023-02-05T05:43:28.685Z,12.80
2023-02-05T05:45:57.319Z,11.60
2023-02-05T05:48:26.060Z,12.53
2023-02-05T05:50:54.886Z,11.47
2023-02-05T05:53:23.990Z,12.80
2023-02-05T05:55:52.696Z,11.17
2023-02-05T05:58:22.715Z,10.00
2023-02-05T06:00:51.733Z,10.17
2023-02-05T06:03:22.260Z,9.53
2023-02-05T06:05:50.895Z,9.83
2023-02-05T06:08:19.693Z,9.33
2023-02-05T06:10:48.390Z,8.63
2023-02-05T06:13:17.014Z,8.10
2023-02-05T06:15:47.464Z,9.33
2023-02-05T06:18:34.723Z,6.70
2023-02-05T06:21:03.544Z,5.97
2023-02-05T06:23:32.232Z,7.87
2023-02-05T06:26:01.043Z,10.07
2023-02-05T06:28:29.629Z,8.37
2023-02-05T06:30:59.652Z,6.37
2023-02-05T06:33:28.325Z,7.60
2023-02-05T06:35:56.945Z,6.60
2023-02-05T06:38:25.547Z,8.07
2023-02-05T06:40:54.179Z,6.17
2023-02-05T06:43:22.793Z,6.10
2023-02-05T06:45:51.436Z,6.03
2023-02-05T06:48:21.471Z,5.97
2023-02-05T06:50:50.065Z,6.30
2023-02-05T06:53:18.738Z,6.43
2023-02-05T06:55:47.300Z,5.83
2023-02-05T06:58:15.882Z,5.90
2023-02-05T07:00:44.467Z,6.60
2023-02-05T07:03:13.108Z,6.17
2023-02-05T07:05:43.082Z,6.13
2023-02-05T07:08:11.744Z,7.40
2023-02-05T07:10:40.736Z,7.23
2023-02-05T07:13:09.394Z,6.47
2023-02-05T07:15:38.460Z,6.57
2023-02-05T07:18:07.555Z,7.60
2023-02-05T07:20:36.233Z,7.90
2023-02-05T07:23:06.636Z,6.20
2023-02-05T07:25:37.900Z,7.17
2023-02-05T07:28:07.398Z,7.93
2023-02-05T07:30:36.644Z,9.63
2023-02-05T07:33:06.017Z,6.60
2023-02-05T07:35:37.761Z,8.20
2023-02-05T07:38:07.787Z,7.97
2023-02-05T07:40:38.525Z,7.27
2023-02-05T07:43:07.273Z,5.50
2023-02-05T07:45:36.171Z,8.87
2023-02-05T07:48:05.212Z,6.10
2023-02-05T07:50:33.835Z,8.07
2023-02-05T07:53:02.576Z,10.67
2023-02-05T07:55:32.867Z,8.30
2023-02-05T07:58:01.654Z,9.57
2023-02-05T08:00:30.343Z,12.03
2023-02-05T08:02:58.926Z,6.33
2023-02-05T08:05:28.748Z,9.07
2023-02-05T08:07:57.385Z,7.23
2023-02-05T08:10:26.079Z,7.00
2023-02-05T08:12:56.147Z,7.33
2023-02-05T08:15:24.907Z,7.00
2023-02-05T08:17:53.494Z,6.63
2023-02-05T08:20:22.380Z,8.30
2023-02-05T08:22:50.947Z,7.57
2023-02-05T08:25:19.762Z,6.67
2023-02-05T08:27:49.277Z,6.63
2023-02-05T08:30:21.779Z,8.47
2023-02-05T08:32:51.612Z,8.03
2023-02-05T08:35:20.324Z,7.43
2023-02-05T08:37:48.881Z,7.73
2023-02-05T08:40:17.599Z,6.77
2023-02-05T08:42:46.789Z,7.90
2023-02-05T08:45:15.395Z,7.17
2023-02-05T08:47:45.426Z,7.50
2023-02-05T08:50:14.087Z,6.60
2023-02-05T08:52:42.730Z,8.20
2023-02-05T08:55:11.639Z,6.07
2023-02-05T08:57:40.753Z,8.87
2023-02-05T09:00:10.617Z,6.90
2023-02-05T09:02:39.331Z,10.13
2023-02-05T09:05:09.912Z,6.67
2023-02-05T09:07:40.026Z,7.53
2023-02-05T09:10:10.174Z,6.27
2023-02-05T09:12:38.973Z,6.97
2023-02-05T09:15:08.790Z,7.10
2023-02-05T09:17:38.640Z,8.50
2023-02-05T09:20:09.736Z,6.90
2023-02-05T09:22:38.717Z,7.57
2023-02-05T09:25:08.009Z,8.07
2023-02-05T09:27:36.538Z,8.43
2023-02-05T09:30:05.551Z,6.90
2023-02-05T09:32:34.215Z,7.67
2023-02-05T09:35:02.932Z,7.67
2023-02-05T09:37:32.909Z,10.50
2023-02-05T09:40:19.979Z,8.27
2023-02-05T09:42:59.496Z,8.07
2023-02-05T09:45:39.348Z,8.10
2023-02-05T09:48:28.046Z,8.77
2023-02-05T09:50:58.188Z,7.80
2023-02-05T09:53:34.151Z,9.60
2023-02-05T09:56:04.289Z,7.90
2023-02-05T09:58:35.965Z,9.83
2023-02-05T10:01:07.877Z,8.93
2023-02-05T10:03:45.006Z,10.27
2023-02-05T10:06:29.251Z,9.07
2023-02-05T10:09:08.394Z,8.80
2023-02-05T10:11:43.237Z,9.13
2023-02-05T10:14:20.719Z,7.53
2023-02-05T10:17:16.064Z,11.10
2023-02-05T10:20:01.971Z,10.77
2023-02-05T10:22:40.976Z,8.43
2023-02-05T10:25:45.459Z,8.90
2023-02-05T10:28:29.167Z,8.20
2023-02-05T10:31:03.770Z,8.20
2023-02-05T10:33:45.765Z,8.20
2023-02-05T10:36:15.666Z,8.13
2023-02-05T10:38:45.567Z,10.17
2023-02-05T10:41:20.727Z,9.20
2023-02-05T10:43:53.483Z,9.20
2023-02-05T10:46:22.112Z,8.33
2023-02-05T10:48:55.642Z,10.37
2023-02-05T10:51:30.310Z,9.40
2023-02-05T10:54:01.583Z,7.90
2023-02-05T10:56:32.434Z,10.67
2023-02-05T10:59:02.613Z,8.10
2023-02-05T11:01:36.042Z,10.57
2023-02-05T11:04:08.626Z,8.90
2023-02-05T11:06:40.969Z,10.20
2023-02-05T11:09:31.568Z,9.23
2023-02-05T11:12:04.169Z,10.10
2023-02-05T11:14:36.437Z,10.57
2023-02-05T11:17:18.805Z,8.87
2023-02-05T11:19:55.205Z,9.30
2023-02-05T11:22:29.804Z,10.67
2023-02-05T11:25:12.664Z,9.30
2023-02-05T11:27:42.882Z,9.30
2023-02-05T11:30:37.668Z,10.87
2023-02-05T11:33:24.323Z,9.63
2023-02-05T11:35:55.722Z,9.03
2023-02-05T11:38:31.323Z,9.97
2023-02-05T11:41:01.600Z,9.00
2023-02-05T11:43:33.314Z,10.07
2023-02-05T11:46:04.930Z,10.20
2023-02-05T11:48:40.013Z,9.03
2023-02-05T11:51:11.421Z,9.50
2023-02-05T11:53:51.028Z,9.67
2023-02-05T11:56:25.357Z,9.37
2023-02-05T11:59:03.509Z,9.13
2023-02-05T12:01:34.195Z,9.03
2023-02-05T12:04:04.923Z,8.70
2023-02-05T12:06:39.687Z,9.50
2023-02-05T12:09:11.138Z,9.67
2023-02-05T12:12:11.300Z,11.40
2023-02-05T12:14:45.431Z,12.70
2023-02-05T12:17:29.052Z,9.03
2023-02-05T12:20:03.236Z,9.43
2023-02-05T12:22:53.349Z,9.37
2023-02-05T12:25:26.645Z,9.43
2023-02-05T12:28:13.586Z,9.40
2023-02-05T12:31:00.015Z,9.40
2023-02-05T12:33:56.701Z,9.33
2023-02-05T12:36:45.499Z,8.80
2023-02-05T12:39:27.695Z,10.17
2023-02-05T12:42:07.610Z,9.33
2023-02-05T12:44:50.451Z,9.60
2023-02-05T12:47:44.773Z,10.60
2023-02-05T12:50:40.928Z,8.83
2023-02-05T12:53:23.346Z,8.97
2023-02-05T12:56:12.025Z,8.37
2023-02-05T12:58:44.518Z,7.73
2023-02-05T13:01:17.208Z,8.47
2023-02-05T13:03:51.961Z,10.67
2023-02-05T13:06:25.430Z,9.63
2023-02-05T13:08:59.329Z,10.17
2023-02-05T13:11:32.024Z,12.03
2023-02-05T13:14:07.626Z,9.63
2023-02-05T13:16:42.347Z,9.83
2023-02-05T13:19:23.454Z,9.60
2023-02-05T13:22:11.384Z,10.50
2023-02-05T13:25:04.050Z,12.30
2023-02-05T13:27:55.089Z,9.67
2023-02-05T13:30:29.566Z,10.27
2023-02-05T13:33:01.382Z,9.50
2023-02-05T13:35:38.644Z,9.77
2023-02-05T13:38:28.542Z,10.07
2023-02-05T13:41:35.643Z,10.50
2023-02-05T13:44:37.036Z,9.43
2023-02-05T13:47:28.090Z,8.17
2023-02-05T13:50:14.057Z,8.63
2023-02-05T13:53:06.930Z,10.40
2023-02-05T13:55:52.435Z,11.63
2023-02-05T13:58:24.554Z,8.53
2023-02-05T14:01:00.536Z,9.57
2023-02-05T14:03:36.135Z,9.67
2023-02-05T14:06:23.107Z,8.90
2023-02-05T14:09:01.237Z,13.07
2023-02-05T14:11:30.483Z,10.83
2023-02-05T14:14:28.011Z,9.70
2023-02-05T14:16:58.343Z,12.30
2023-02-05T14:19:56.992Z,11.43
2023-02-05T14:22:42.305Z,8.53
2023-02-05T14:25:48.863Z,9.80
2023-02-05T14:28:45.528Z,9.63
2023-02-05T14:31:50.661Z,8.93
2023-02-05T14:34:50.868Z,9.00
2023-02-05T14:37:35.926Z,8.70
2023-02-05T14:40:27.533Z,9.60
2023-02-05T14:43:09.513Z,10.30
2023-02-05T14:45:47.342Z,9.40
2023-02-05T14:48:26.074Z,9.23
2023-02-05T14:51:09.720Z,12.03
2023-02-05T14:53:39.766Z,9.43
2023-02-05T14:56:08.952Z,10.03
2023-02-05T14:58:40.786Z,10.47
2023-02-05T15:01:46.310Z,11.17
2023-02-05T15:04:28.796Z,10.30
2023-02-05T15:07:01.960Z,12.07
2023-02-05T15:09:40.554Z,10.70
2023-02-05T15:12:47.762Z,9.00
2023-02-05T15:15:33.699Z,10.90
2023-02-05T15:18:16.595Z,11.07
2023-02-05T15:20:49.286Z,9.03
2023-02-05T15:23:36.300Z,10.87
2023-02-05T15:26:07.290Z,9.57
2023-02-05T15:28:40.695Z,10.67
2023-02-05T15:31:23.149Z,9.40
2023-02-05T15:34:00.314Z,11.70
2023-02-05T15:36:35.187Z,9.80
2023-02-05T15:39:24.813Z,8.67
2023-02-05T15:41:56.878Z,10.20
2023-02-05T15:44:30.183Z,9.43
2023-02-05T15:47:01.382Z,7.80
2023-02-05T15:49:36.948Z,9.50
2023-02-05T15:52:06.888Z,8.27
2023-02-05T15:54:38.232Z,9.03
2023-02-05T15:57:08.937Z,10.47
2023-02-05T15:59:37.681Z,8.80
2023-02-05T16:02:10.067Z,8.27
2023-02-05T16:04:40.895Z,8.93
2023-02-05T16:07:22.184Z,12.27
2023-02-05T16:09:54.046Z,8.40
2023-02-05T16:12:22.947Z,9.97
2023-02-05T16:14:59.731Z,10.50
2023-02-05T16:17:33.028Z,9.57
2023-02-05T16:20:16.889Z,11.50
2023-02-05T16:22:47.809Z,9.73
2023-02-05T16:25:29.873Z,10.17
2023-02-05T16:28:00.034Z,11.93
2023-02-05T16:30:33.879Z,14.47
2023-02-05T16:33:05.129Z,12.07
2023-02-05T16:35:38.675Z,8.53
2023-02-05T16:38:14.400Z,10.53
2023-02-05T16:40:46.269Z,10.43
2023-02-05T16:43:26.361Z,10.70
2023-02-05T16:46:25.577Z,13.93
2023-02-05T16:48:56.635Z,11.17
2023-02-05T16:51:56.724Z,9.27
2023-02-05T16:54:33.929Z,11.33
2023-02-05T16:57:10.530Z,11.63
2023-02-05T16:59:51.138Z,11.43
2023-02-05T17:02:29.217Z,11.67
2023-02-05T17:04:59.742Z,12.10
2023-02-05T17:07:31.078Z,11.33
2023-02-05T17:10:18.952Z,10.53
2023-02-05T17:12:53.989Z,7.90
2023-02-05T17:15:43.262Z,10.37
2023-02-05T17:18:22.018Z,8.10
2023-02-05T17:20:50.760Z,9.07
2023-02-05T17:23:23.742Z,9.13
2023-02-05T17:25:55.783Z,9.43
2023-02-05T17:28:27.433Z,9.90
2023-02-05T17:30:58.834Z,12.43
2023-02-05T17:33:29.475Z,9.93
2023-02-05T17:35:58.128Z,9.90
2023-02-05T17:38:28.479Z,11.30
2023-02-05T17:41:11.019Z,13.57
2023-02-05T17:43:39.740Z,9.67
2023-02-05T17:46:13.892Z,9.97
2023-02-05T17:48:44.724Z,8.77
2023-02-05T17:51:19.870Z,11.20
2023-02-05T17:53:50.752Z,10.17
2023-02-05T17:56:21.359Z,9.60
2023-02-05T17:58:51.451Z,9.53
2023-02-05T18:01:20.882Z,10.13
2023-02-05T18:03:49.771Z,11.10
2023-02-05T18:06:20.395Z,8.67
2023-02-05T18:08:50.528Z,9.93
2023-02-05T18:11:19.230Z,9.63
2023-02-05T18:13:47.829Z,8.93
2023-02-05T18:16:16.484Z,8.70
2023-02-05T18:18:45.205Z,10.53
2023-02-05T18:21:13.849Z,8.47
2023-02-05T18:23:42.767Z,9.77
2023-02-05T18:26:12.850Z,9.40
2023-02-05T18:28:41.640Z,10.63
2023-02-05T18:31:11.233Z,9.30
2023-02-05T18:33:40.158Z,9.23
2023-02-05T18:36:10.954Z,9.73
2023-02-05T18:38:43.041Z,9.73
2023-02-05T18:41:17.076Z,8.83
2023-02-05T18:43:46.213Z,10.17
2023-02-05T18:46:17.167Z,8.50
2023-02-05T18:48:46.089Z,8.67
2023-02-05T18:51:16.667Z,8.73
2023-02-05T18:53:45.697Z,9.03
2023-02-05T18:56:18.270Z,10.47
2023-02-05T18:58:52.600Z,10.20
2023-02-05T19:01:21.670Z,10.30
2023-02-05T19:03:52.819Z,8.13
2023-02-05T19:06:22.455Z,10.27
2023-02-05T19:08:51.586Z,10.50
2023-02-05T19:11:24.274Z,9.27
2023-02-05T19:13:57.362Z,9.03
2023-02-05T19:16:27.448Z,10.03
2023-02-05T19:18:56.317Z,8.57
2023-02-05T19:21:26.752Z,8.93
2023-02-05T19:23:57.353Z,10.23
2023-02-05T19:26:29.896Z,8.90
2023-02-05T19:28:59.999Z,9.80
2023-02-05T19:31:31.779Z,8.07
2023-02-05T19:34:00.974Z,9.03
2023-02-05T19:36:30.874Z,8.80
2023-02-05T19:39:01.723Z,8.67
2023-02-05T19:41:34.239Z,8.90
2023-02-05T19:44:06.123Z,7.97
2023-02-05T19:46:37.557Z,9.13
2023-02-05T19:49:09.432Z,10.37
2023-02-05T19:51:39.542Z,7.90
2023-02-05T19:54:08.316Z,10.97
2023-02-05T19:56:38.525Z,11.00
2023-02-05T19:59:07.636Z,10.67
2023-02-05T20:01:38.237Z,11.63
2023-02-05T20:04:11.912Z,10.10
2023-02-05T20:06:41.920Z,8.43
2023-02-05T20:09:13.482Z,11.80
2023-02-05T20:11:45.225Z,11.40
2023-02-05T20:14:14.314Z,10.60
2023-02-05T20:16:45.162Z,8.60
2023-02-05T20:19:15.655Z,8.87
2023-02-05T20:21:45.239Z,9.07
2023-02-05T20:24:15.714Z,8.50
2023-02-05T20:26:48.369Z,9.47
2023-02-05T20:29:35.122Z,10.23
2023-02-05T20:32:03.950Z,9.33
2023-02-05T20:34:36.047Z,8.90
2023-02-05T20:37:09.612Z,9.30
2023-02-05T20:39:41.967Z,12.37
2023-02-05T20:42:13.569Z,9.77
2023-02-05T20:44:43.638Z,13.07
2023-02-05T20:47:14.554Z,11.37
2023-02-05T20:49:43.843Z,8.43
2023-02-05T20:52:13.026Z,9.50
2023-02-05T20:54:42.137Z,9.23
2023-02-05T20:57:14.564Z,9.43
2023-02-05T20:59:43.685Z,7.30
2023-02-05T21:02:13.800Z,10.40
2023-02-05T21:04:42.672Z,10.00
2023-02-05T21:07:11.847Z,9.20
2023-02-05T21:09:40.753Z,9.57
2023-02-05T21:12:09.545Z,9.27
2023-02-05T21:14:39.656Z,8.53
2023-02-05T21:17:09.620Z,10.57
2023-02-05T21:19:39.715Z,8.57
2023-02-05T21:22:08.331Z,12.53
2023-02-05T21:24:36.946Z,8.90
2023-02-05T21:27:06.025Z,7.07
2023-02-05T21:29:34.846Z,10.40
2023-02-05T21:32:05.257Z,8.33
2023-02-05T21:34:33.919Z,8.43
2023-02-05T21:37:02.612Z,7.70
2023-02-05T21:39:31.306Z,9.13
2023-02-05T21:41:59.849Z,9.80
2023-02-05T21:44:28.557Z,9.37
2023-02-05T21:46:57.197Z,9.43
2023-02-05T21:49:27.158Z,7.27
2023-02-05T21:51:55.836Z,9.53
2023-02-05T21:54:25.810Z,8.17
2023-02-05T21:56:54.622Z,8.87
2023-02-05T21:59:23.405Z,9.07
2023-02-05T22:01:52.293Z,7.20
2023-02-05T22:04:20.941Z,9.50
2023-02-05T22:06:51.684Z,8.57
2023-02-05T22:09:20.625Z,9.93
2023-02-05T22:11:51.693Z,7.10
2023-02-05T22:14:20.674Z,8.63
2023-02-05T22:16:49.311Z,8.73
2023-02-05T22:19:17.980Z,8.43
2023-02-05T22:21:46.923Z,8.10
2023-02-05T22:24:18.676Z,10.17
2023-02-05T22:26:48.162Z,8.67
2023-02-05T22:29:19.506Z,9.40
2023-02-05T22:31:52.227Z,7.93
2023-02-05T22:34:21.261Z,7.60
2023-02-05T22:36:49.846Z,8.07
2023-02-05T22:39:19.844Z,9.53
2023-02-05T22:41:48.474Z,7.40
2023-02-05T22:44:17.145Z,10.03
2023-02-05T22:46:46.000Z,8.70
2023-02-05T22:49:15.754Z,8.90
2023-02-05T22:51:45.633Z,8.63
2023-02-05T22:54:16.174Z,9.50
2023-02-05T22:56:46.499Z,9.93
2023-02-05T22:59:15.152Z,11.23
2023-02-05T23:01:44.734Z,10.20
2023-02-05T23:04:13.403Z,10.17
2023-02-05T23:06:43.728Z,9.23
2023-02-05T23:09:15.003Z,8.53
2023-02-05T23:11:45.847Z,8.87
2023-02-05T23:14:15.991Z,9.37
2023-02-05T23:16:47.070Z,6.30
2023-02-05T23:19:18.501Z,9.57
2023-02-05T23:21:48.010Z,7.73
2023-02-05T23:24:17.239Z,9.70
2023-02-05T23:26:49.129Z,7.50
2023-02-05T23:29:17.995Z,8.93
2023-02-05T23:31:46.953Z,7.30
2023-02-05T23:34:15.761Z,7.90
2023-02-05T23:36:44.366Z,8.13
2023-02-05T23:39:12.978Z,9.80
2023-02-05T23:41:41.634Z,7.80
2023-02-05T23:44:14.653Z,6.77
2023-02-05T23:46:44.634Z,6.40
2023-02-05T23:49:14.095Z,10.27
2023-02-05T23:51:43.145Z,6.50
2023-02-05T23:54:12.809Z,8.13
2023-02-05T23:56:41.834Z,7.60
2023-02-05T23:59:13.236Z,7.70
